Updated11/12/2018 03:30 
 

Dummy
GeoURL
free counters
Scottish Weather Network UK Weather Network Cumulus Top Weather Sites

Peebles Weather - Live Gauges

Raw Data, Raw Data Expanded

Ignore low humidity and Dew Point values. Something wrong with the sensor.
Daytime temperatures are in direct sunlight so may be higher than official air temperature values.
As with any other website, we log your IP address and browser type in the server logs for diagnostic reasons. Cookies are used to record visit time and gauges preferences. No personal information is stored or processed.

All times are in BST (UTC+1) unless specified.

2018/12/11 03:20 EGPH 110320Z 00000KT 9999 OVC033 02/02 Q1023
2.0°C 0.0 mm 0.3 mm 0.3 mm 2.4 mph 3.8 mph 1019.2 hPa 10% X-Ray Solar Flare Level
Planetary K-Index
Planetary K-Index History
Station Warn Rain Snow Flood Wind Ltng Heat Cold Glob Moon Temp Rain 1h Rain Tue Rain 24h Wind 10m Gust Pressure Hum Proton Levels

0.635 m Waxing Crescent Cold F1-NE F: A: Kp:0 SSN:0

Gauges

. Peebles Weather Steel Gauges
Time at station location

      



Temperature:
Rainfall:
Pressure:
Wind Speed:
CloudBase:
 
 
 
 

Scripts: Mark Crossley - version
Gauges: Gerrit Grunwald's SteelSeries JavaScript library
Wind Rose: RGraph
A cookie is used to store your UoM and gauge preferences
powered by v (b)


XHTML 1.1 | CSS